General José María Yáñez International Airport
MMGM : now visible

Airfield :











YOU CAN JOIN US ON...

 
LOGIN :

Register | Disclaimer

   EN    FR    IT 

 









Legend :    VFR   Marginal VFR   IFR   Intensive IFR   Very Intensive IFR
Visi :
Ceiling :
>= 8 km
>= 3000ft
5 to 8 km
1000 to 3000 ft
1500m to 5 km
500 to 1000 ft
800 to 1500m
200 to 500 ft
< 800m
< 200 ft
Symbols :   Thunderstorms  Fog  Heavy snow  Heavy precipitations  Wind > 20 kt






- Airport Elevation : 59 ft
- IATA code : GYM


MMGM - General José María Yáñez International

CURRENT METAR :
  • 092040Z 00000KT 10SM SCT150 24/18 A2986 RMK 8/030

EXPIRED METARs :
  • 091940Z 00000KT 10SM BKN150 22/19 A2988 RMK 8/030 HZY
  • 091840Z 16008KT 10SM OVC100 20/18 A2990 RMK 8/07/ HZY

TAF TAF MMGM
Valid from the 09 at 18:00 until the 10 at 18:00 UTC


091641Z 0918/1018 06008KT P6SM BKN040 OVC100
FM092000 30015KT P6SM BKN020
FM100000 34010KT P6SM SKC



MET'MAP, your aeronautical weather chart ! - Copyright ORBIFLY December 2007 - Disclaimer

ORBIFLY MET'MAP TEAM :

Programming & Development : Alexandra Zaïnal
Concept & original design : Baudouin d'Aumeries
Assistance for programming : Marc-Olivier Méhu
Technical & hardware support : Manuel Goepfert

Contact : metmap@orbifly.com




SOURCES & CREDITS :

   NOAA       Earth
Advisory